sensor_id;sensor_type;location;lat;lon;timestamp;P1;durP1;ratioP1;P2;durP2;ratioP2
18125;SDS011;53956;52.442;13.284;2023-02-25T00:01:03;12.43;;;3.93;;
18125;SDS011;53956;52.442;13.284;2023-02-25T00:03:30;10.83;;;4.03;;
18125;SDS011;53956;52.442;13.284;2023-02-25T00:05:57;13.03;;;3.83;;
18125;SDS011;53956;52.442;13.284;2023-02-25T00:08:26;15.20;;;4.10;;
18125;SDS011;53956;52.442;13.284;2023-02-25T00:10:55;12.07;;;3.73;;
18125;SDS011;53956;52.442;13.284;2023-02-25T00:13:23;13.83;;;3.47;;
18125;SDS011;53956;52.442;13.284;2023-02-25T00:15:51;14.13;;;4.17;;
18125;SDS011;53956;52.442;13.284;2023-02-25T00:18:18;14.73;;;3.80;;
18125;SDS011;53956;52.442;13.284;2023-02-25T00:20:45;17.77;;;4.40;;
18125;SDS011;53956;52.442;13.284;2023-02-25T00:23:11;19.53;;;4.37;;
18125;SDS011;53956;52.442;13.284;2023-02-25T00:25:38;15.10;;;3.80;;
18125;SDS011;53956;52.442;13.284;2023-02-25T00:28:05;14.27;;;4.03;;
18125;SDS011;53956;52.442;13.284;2023-02-25T00:30:32;18.00;;;4.27;;
18125;SDS011;53956;52.442;13.284;2023-02-25T00:33:00;15.27;;;4.20;;
18125;SDS011;53956;52.442;13.284;2023-02-25T00:35:27;24.20;;;4.40;;
18125;SDS011;53956;52.442;13.284;2023-02-25T00:37:53;16.63;;;3.80;;
18125;SDS011;53956;52.442;13.284;2023-02-25T00:40:20;6.50;;;2.83;;
18125;SDS011;53956;52.442;13.284;2023-02-25T00:42:47;7.63;;;2.70;;
18125;SDS011;53956;52.442;13.284;2023-02-25T00:45:14;4.60;;;2.60;;
18125;SDS011;53956;52.442;13.284;2023-02-25T00:47:41;8.17;;;2.50;;
18125;SDS011;53956;52.442;13.284;2023-02-25T00:50:10;3.57;;;2.50;;
18125;SDS011;53956;52.442;13.284;2023-02-25T00:52:38;4.57;;;2.60;;
18125;SDS011;53956;52.442;13.284;2023-02-25T00:55:05;4.03;;;2.40;;
18125;SDS011;53956;52.442;13.284;2023-02-25T00:57:33;6.47;;;2.83;;
18125;SDS011;53956;52.442;13.284;2023-02-25T01:00:00;5.33;;;2.77;;
18125;SDS011;53956;52.442;13.284;2023-02-25T01:02:27;6.57;;;2.67;;
18125;SDS011;53956;52.442;13.284;2023-02-25T01:04:54;7.20;;;3.00;;
18125;SDS011;53956;52.442;13.284;2023-02-25T01:07:22;8.10;;;2.97;;
18125;SDS011;53956;52.442;13.284;2023-02-25T01:09:49;8.97;;;3.10;;
18125;SDS011;53956;52.442;13.284;2023-02-25T01:12:20;7.37;;;2.83;;
18125;SDS011;53956;52.442;13.284;2023-02-25T01:14:47;6.97;;;2.73;;
18125;SDS011;53956;52.442;13.284;2023-02-25T01:17:14;6.43;;;3.17;;
18125;SDS011;53956;52.442;13.284;2023-02-25T01:19:40;10.17;;;3.57;;
18125;SDS011;53956;52.442;13.284;2023-02-25T01:22:07;11.90;;;3.60;;
18125;SDS011;53956;52.442;13.284;2023-02-25T01:24:35;8.70;;;3.37;;
18125;SDS011;53956;52.442;13.284;2023-02-25T01:27:02;9.53;;;3.37;;
18125;SDS011;53956;52.442;13.284;2023-02-25T01:29:30;12.13;;;4.00;;
18125;SDS011;53956;52.442;13.284;2023-02-25T01:32:00;12.63;;;3.87;;
18125;SDS011;53956;52.442;13.284;2023-02-25T01:34:28;7.87;;;3.50;;
18125;SDS011;53956;52.442;13.284;2023-02-25T01:36:55;10.53;;;3.70;;
18125;SDS011;53956;52.442;13.284;2023-02-25T01:39:23;9.03;;;3.67;;
18125;SDS011;53956;52.442;13.284;2023-02-25T01:41:52;9.13;;;3.80;;
18125;SDS011;53956;52.442;13.284;2023-02-25T01:44:20;8.43;;;3.70;;
18125;SDS011;53956;52.442;13.284;2023-02-25T01:46:50;8.90;;;3.60;;
18125;SDS011;53956;52.442;13.284;2023-02-25T01:49:19;10.60;;;3.77;;
18125;SDS011;53956;52.442;13.284;2023-02-25T01:51:49;12.07;;;3.77;;
18125;SDS011;53956;52.442;13.284;2023-02-25T01:54:19;6.90;;;3.40;;
18125;SDS011;53956;52.442;13.284;2023-02-25T01:56:48;10.63;;;3.73;;
18125;SDS011;53956;52.442;13.284;2023-02-25T01:59:20;9.73;;;3.70;;
18125;SDS011;53956;52.442;13.284;2023-02-25T02:01:49;11.30;;;3.73;;
18125;SDS011;53956;52.442;13.284;2023-02-25T02:04:17;8.87;;;3.87;;
18125;SDS011;53956;52.442;13.284;2023-02-25T02:06:47;7.30;;;3.63;;
18125;SDS011;53956;52.442;13.284;2023-02-25T02:09:16;6.77;;;3.30;;
18125;SDS011;53956;52.442;13.284;2023-02-25T02:11:46;9.80;;;3.37;;
18125;SDS011;53956;52.442;13.284;2023-02-25T02:14:14;7.80;;;3.40;;
18125;SDS011;53956;52.442;13.284;2023-02-25T02:16:57;7.30;;;3.47;;
18125;SDS011;53956;52.442;13.284;2023-02-25T02:19:33;5.73;;;3.13;;
18125;SDS011;53956;52.442;13.284;2023-02-25T02:22:08;5.63;;;3.20;;
18125;SDS011;53956;52.442;13.284;2023-02-25T02:24:50;7.20;;;3.00;;
18125;SDS011;53956;52.442;13.284;2023-02-25T02:27:47;4.33;;;2.90;;
18125;SDS011;53956;52.442;13.284;2023-02-25T02:30:41;5.33;;;2.73;;
18125;SDS011;53956;52.442;13.284;2023-02-25T02:33:23;4.87;;;3.13;;
18125;SDS011;53956;52.442;13.284;2023-02-25T02:35:57;5.00;;;3.00;;
18125;SDS011;53956;52.442;13.284;2023-02-25T02:38:30;4.73;;;3.07;;
18125;SDS011;53956;52.442;13.284;2023-02-25T02:41:02;4.87;;;3.17;;
18125;SDS011;53956;52.442;13.284;2023-02-25T02:43:38;3.50;;;2.90;;
18125;SDS011;53956;52.442;13.284;2023-02-25T02:46:12;4.23;;;3.03;;
18125;SDS011;53956;52.442;13.284;2023-02-25T02:48:47;3.33;;;2.97;;
18125;SDS011;53956;52.442;13.284;2023-02-25T02:51:20;5.53;;;3.10;;
18125;SDS011;53956;52.442;13.284;2023-02-25T02:53:51;3.93;;;2.93;;
18125;SDS011;53956;52.442;13.284;2023-02-25T02:56:20;6.17;;;3.33;;
18125;SDS011;53956;52.442;13.284;2023-02-25T02:58:50;3.73;;;2.83;;
18125;SDS011;53956;52.442;13.284;2023-02-25T03:01:23;3.50;;;3.20;;
18125;SDS011;53956;52.442;13.284;2023-02-25T03:03:57;3.77;;;3.13;;
18125;SDS011;53956;52.442;13.284;2023-02-25T03:06:28;3.70;;;3.07;;
18125;SDS011;53956;52.442;13.284;2023-02-25T03:09:01;4.73;;;2.93;;
18125;SDS011;53956;52.442;13.284;2023-02-25T03:11:33;3.47;;;2.90;;
18125;SDS011;53956;52.442;13.284;2023-02-25T03:13:59;3.97;;;2.70;;
18125;SDS011;53956;52.442;13.284;2023-02-25T03:16:28;3.53;;;2.73;;
18125;SDS011;53956;52.442;13.284;2023-02-25T03:19:02;3.23;;;2.97;;
18125;SDS011;53956;52.442;13.284;2023-02-25T03:21:34;3.73;;;3.03;;
18125;SDS011;53956;52.442;13.284;2023-02-25T03:24:07;3.30;;;3.07;;
18125;SDS011;53956;52.442;13.284;2023-02-25T03:26:39;3.07;;;2.77;;
18125;SDS011;53956;52.442;13.284;2023-02-25T03:29:11;3.03;;;2.83;;
18125;SDS011;53956;52.442;13.284;2023-02-25T03:31:41;3.57;;;2.80;;
18125;SDS011;53956;52.442;13.284;2023-02-25T03:34:15;2.53;;;2.43;;
18125;SDS011;53956;52.442;13.284;2023-02-25T03:36:46;2.90;;;2.70;;
18125;SDS011;53956;52.442;13.284;2023-02-25T03:39:18;2.60;;;2.40;;
18125;SDS011;53956;52.442;13.284;2023-02-25T03:41:49;2.83;;;2.57;;
18125;SDS011;53956;52.442;13.284;2023-02-25T03:44:19;2.63;;;2.43;;
18125;SDS011;53956;52.442;13.284;2023-02-25T03:46:50;2.90;;;2.60;;
18125;SDS011;53956;52.442;13.284;2023-02-25T03:49:20;2.40;;;2.20;;
18125;SDS011;53956;52.442;13.284;2023-02-25T03:51:52;2.70;;;2.50;;
18125;SDS011;53956;52.442;13.284;2023-02-25T03:54:21;2.90;;;2.40;;
18125;SDS011;53956;52.442;13.284;2023-02-25T03:56:49;2.73;;;2.30;;
18125;SDS011;53956;52.442;13.284;2023-02-25T03:59:17;5.33;;;3.57;;
18125;SDS011;53956;52.442;13.284;2023-02-25T04:01:47;3.17;;;2.50;;
18125;SDS011;53956;52.442;13.284;2023-02-25T04:04:16;2.40;;;2.20;;
18125;SDS011;53956;52.442;13.284;2023-02-25T04:06:44;2.60;;;2.40;;
18125;SDS011;53956;52.442;13.284;2023-02-25T04:09:12;2.37;;;2.17;;
18125;SDS011;53956;52.442;13.284;2023-02-25T04:11:39;2.50;;;2.30;;
18125;SDS011;53956;52.442;13.284;2023-02-25T04:14:06;2.50;;;2.30;;
18125;SDS011;53956;52.442;13.284;2023-02-25T04:16:33;2.80;;;2.60;;
18125;SDS011;53956;52.442;13.284;2023-02-25T04:19:01;2.57;;;2.37;;
18125;SDS011;53956;52.442;13.284;2023-02-25T04:21:28;2.30;;;2.20;;
18125;SDS011;53956;52.442;13.284;2023-02-25T04:23:58;3.40;;;2.30;;
18125;SDS011;53956;52.442;13.284;2023-02-25T04:26:25;2.40;;;2.20;;
18125;SDS011;53956;52.442;13.284;2023-02-25T04:28:51;3.10;;;2.33;;
18125;SDS011;53956;52.442;13.284;2023-02-25T04:31:18;2.63;;;2.37;;
18125;SDS011;53956;52.442;13.284;2023-02-25T04:33:45;2.47;;;2.20;;
18125;SDS011;53956;52.442;13.284;2023-02-25T04:36:26;2.43;;;2.23;;
18125;SDS011;53956;52.442;13.284;2023-02-25T04:38:55;2.50;;;2.40;;
18125;SDS011;53956;52.442;13.284;2023-02-25T04:41:26;2.70;;;2.50;;
18125;SDS011;53956;52.442;13.284;2023-02-25T04:43:54;2.60;;;2.40;;
18125;SDS011;53956;52.442;13.284;2023-02-25T04:46:20;2.73;;;2.53;;
18125;SDS011;53956;52.442;13.284;2023-02-25T04:48:47;2.40;;;2.30;;
18125;SDS011;53956;52.442;13.284;2023-02-25T04:51:14;2.90;;;2.70;;
18125;SDS011;53956;52.442;13.284;2023-02-25T04:53:41;2.47;;;2.30;;
18125;SDS011;53956;52.442;13.284;2023-02-25T04:56:07;2.87;;;2.63;;
18125;SDS011;53956;52.442;13.284;2023-02-25T04:58:36;2.90;;;2.70;;
18125;SDS011;53956;52.442;13.284;2023-02-25T05:01:04;2.70;;;2.50;;
18125;SDS011;53956;52.442;13.284;2023-02-25T05:03:32;2.80;;;2.60;;
18125;SDS011;53956;52.442;13.284;2023-02-25T05:06:00;2.50;;;2.40;;
18125;SDS011;53956;52.442;13.284;2023-02-25T05:08:27;2.80;;;2.60;;
18125;SDS011;53956;52.442;13.284;2023-02-25T05:10:54;2.90;;;2.50;;
18125;SDS011;53956;52.442;13.284;2023-02-25T05:13:21;3.43;;;2.67;;
18125;SDS011;53956;52.442;13.284;2023-02-25T05:15:49;2.73;;;2.53;;
18125;SDS011;53956;52.442;13.284;2023-02-25T05:18:16;3.13;;;2.70;;
18125;SDS011;53956;52.442;13.284;2023-02-25T05:20:43;2.93;;;2.73;;
18125;SDS011;53956;52.442;13.284;2023-02-25T05:23:11;2.60;;;2.40;;
18125;SDS011;53956;52.442;13.284;2023-02-25T05:25:38;2.60;;;2.40;;
18125;SDS011;53956;52.442;13.284;2023-02-25T05:28:06;2.73;;;2.37;;
18125;SDS011;53956;52.442;13.284;2023-02-25T05:30:33;3.53;;;3.23;;
18125;SDS011;53956;52.442;13.284;2023-02-25T05:33:01;3.27;;;2.67;;
18125;SDS011;53956;52.442;13.284;2023-02-25T05:35:27;3.00;;;2.70;;
18125;SDS011;53956;52.442;13.284;2023-02-25T05:37:56;2.50;;;2.30;;
18125;SDS011;53956;52.442;13.284;2023-02-25T05:40:23;4.10;;;2.63;;
18125;SDS011;53956;52.442;13.284;2023-02-25T05:42:50;2.70;;;2.50;;
18125;SDS011;53956;52.442;13.284;2023-02-25T05:45:16;2.80;;;2.60;;
18125;SDS011;53956;52.442;13.284;2023-02-25T05:47:43;4.50;;;3.17;;
18125;SDS011;53956;52.442;13.284;2023-02-25T05:50:11;4.00;;;2.53;;
18125;SDS011;53956;52.442;13.284;2023-02-25T05:52:38;3.00;;;2.70;;
18125;SDS011;53956;52.442;13.284;2023-02-25T05:55:05;3.30;;;3.00;;
18125;SDS011;53956;52.442;13.284;2023-02-25T05:57:33;3.07;;;2.73;;
18125;SDS011;53956;52.442;13.284;2023-02-25T06:00:00;3.47;;;2.70;;
18125;SDS011;53956;52.442;13.284;2023-02-25T06:02:37;3.63;;;2.47;;
18125;SDS011;53956;52.442;13.284;2023-02-25T06:05:04;3.00;;;2.70;;
18125;SDS011;53956;52.442;13.284;2023-02-25T06:07:33;3.00;;;2.80;;
18125;SDS011;53956;52.442;13.284;2023-02-25T06:10:00;3.20;;;2.90;;
18125;SDS011;53956;52.442;13.284;2023-02-25T06:12:27;3.10;;;2.90;;
18125;SDS011;53956;52.442;13.284;2023-02-25T06:14:54;2.80;;;2.60;;
18125;SDS011;53956;52.442;13.284;2023-02-25T06:17:21;3.20;;;2.70;;
18125;SDS011;53956;52.442;13.284;2023-02-25T06:19:49;2.90;;;2.60;;
18125;SDS011;53956;52.442;13.284;2023-02-25T06:22:16;3.63;;;2.63;;
18125;SDS011;53956;52.442;13.284;2023-02-25T06:24:44;2.70;;;2.50;;
18125;SDS011;53956;52.442;13.284;2023-02-25T06:27:11;2.40;;;2.30;;
18125;SDS011;53956;52.442;13.284;2023-02-25T06:29:38;3.00;;;2.70;;
18125;SDS011;53956;52.442;13.284;2023-02-25T06:32:05;2.90;;;2.70;;
18125;SDS011;53956;52.442;13.284;2023-02-25T06:34:32;2.50;;;2.30;;
18125;SDS011;53956;52.442;13.284;2023-02-25T06:36:59;2.70;;;2.50;;
18125;SDS011;53956;52.442;13.284;2023-02-25T06:39:26;2.90;;;2.70;;
18125;SDS011;53956;52.442;13.284;2023-02-25T06:41:54;3.87;;;3.00;;
18125;SDS011;53956;52.442;13.284;2023-02-25T06:44:21;2.90;;;2.70;;
18125;SDS011;53956;52.442;13.284;2023-02-25T06:46:48;2.87;;;2.67;;
18125;SDS011;53956;52.442;13.284;2023-02-25T06:49:16;3.20;;;2.90;;
18125;SDS011;53956;52.442;13.284;2023-02-25T06:51:43;2.80;;;2.60;;
18125;SDS011;53956;52.442;13.284;2023-02-25T06:54:09;3.23;;;2.93;;
18125;SDS011;53956;52.442;13.284;2023-02-25T06:56:36;3.17;;;2.97;;
18125;SDS011;53956;52.442;13.284;2023-02-25T06:59:04;2.70;;;2.50;;
18125;SDS011;53956;52.442;13.284;2023-02-25T07:01:31;3.50;;;3.20;;
18125;SDS011;53956;52.442;13.284;2023-02-25T07:03:57;3.30;;;2.63;;
18125;SDS011;53956;52.442;13.284;2023-02-25T07:06:24;3.07;;;2.87;;
18125;SDS011;53956;52.442;13.284;2023-02-25T07:08:51;3.40;;;3.10;;
18125;SDS011;53956;52.442;13.284;2023-02-25T07:11:25;2.73;;;2.53;;
18125;SDS011;53956;52.442;13.284;2023-02-25T07:13:54;8.03;;;3.37;;
18125;SDS011;53956;52.442;13.284;2023-02-25T07:16:23;2.87;;;2.60;;
18125;SDS011;53956;52.442;13.284;2023-02-25T07:18:50;4.07;;;2.43;;
18125;SDS011;53956;52.442;13.284;2023-02-25T07:21:17;2.77;;;2.40;;
18125;SDS011;53956;52.442;13.284;2023-02-25T07:23:44;3.30;;;2.47;;
18125;SDS011;53956;52.442;13.284;2023-02-25T07:26:12;2.47;;;2.27;;
18125;SDS011;53956;52.442;13.284;2023-02-25T07:28:39;3.03;;;2.60;;
18125;SDS011;53956;52.442;13.284;2023-02-25T07:31:08;5.20;;;2.63;;
18125;SDS011;53956;52.442;13.284;2023-02-25T07:33:37;6.07;;;3.33;;
18125;SDS011;53956;52.442;13.284;2023-02-25T07:36:06;3.07;;;2.87;;
18125;SDS011;53956;52.442;13.284;2023-02-25T07:38:33;8.17;;;3.87;;
18125;SDS011;53956;52.442;13.284;2023-02-25T07:41:02;6.43;;;3.40;;
18125;SDS011;53956;52.442;13.284;2023-02-25T07:43:29;15.50;;;6.27;;
18125;SDS011;53956;52.442;13.284;2023-02-25T07:45:56;3.37;;;2.90;;
18125;SDS011;53956;52.442;13.284;2023-02-25T07:48:23;4.77;;;3.47;;
18125;SDS011;53956;52.442;13.284;2023-02-25T07:50:51;2.60;;;2.40;;
18125;SDS011;53956;52.442;13.284;2023-02-25T07:53:18;2.70;;;2.50;;
18125;SDS011;53956;52.442;13.284;2023-02-25T07:55:46;8.83;;;3.93;;
18125;SDS011;53956;52.442;13.284;2023-02-25T07:58:13;2.73;;;2.50;;
18125;SDS011;53956;52.442;13.284;2023-02-25T08:00:40;3.40;;;2.77;;
18125;SDS011;53956;52.442;13.284;2023-02-25T08:03:09;2.63;;;2.43;;
18125;SDS011;53956;52.442;13.284;2023-02-25T08:05:36;2.50;;;2.30;;
18125;SDS011;53956;52.442;13.284;2023-02-25T08:08:05;2.70;;;2.50;;
18125;SDS011;53956;52.442;13.284;2023-02-25T08:10:31;2.30;;;2.10;;
18125;SDS011;53956;52.442;13.284;2023-02-25T08:12:59;3.23;;;2.40;;
18125;SDS011;53956;52.442;13.284;2023-02-25T08:15:25;2.80;;;2.50;;
18125;SDS011;53956;52.442;13.284;2023-02-25T08:17:52;2.27;;;2.17;;
18125;SDS011;53956;52.442;13.284;2023-02-25T08:20:19;3.53;;;2.80;;
18125;SDS011;53956;52.442;13.284;2023-02-25T08:22:46;3.67;;;2.40;;
18125;SDS011;53956;52.442;13.284;2023-02-25T08:25:14;3.03;;;2.60;;
18125;SDS011;53956;52.442;13.284;2023-02-25T08:27:41;2.30;;;2.20;;
18125;SDS011;53956;52.442;13.284;2023-02-25T08:30:09;2.87;;;1.90;;
18125;SDS011;53956;52.442;13.284;2023-02-25T08:32:37;2.70;;;2.50;;
18125;SDS011;53956;52.442;13.284;2023-02-25T08:35:04;2.17;;;2.07;;
18125;SDS011;53956;52.442;13.284;2023-02-25T08:37:31;2.50;;;2.30;;
18125;SDS011;53956;52.442;13.284;2023-02-25T08:39:58;2.43;;;2.23;;
18125;SDS011;53956;52.442;13.284;2023-02-25T08:42:26;3.23;;;2.23;;
18125;SDS011;53956;52.442;13.284;2023-02-25T08:44:53;2.30;;;2.10;;
18125;SDS011;53956;52.442;13.284;2023-02-25T08:47:20;2.20;;;2.00;;
18125;SDS011;53956;52.442;13.284;2023-02-25T08:49:46;2.50;;;2.40;;
18125;SDS011;53956;52.442;13.284;2023-02-25T08:52:13;2.33;;;2.17;;
18125;SDS011;53956;52.442;13.284;2023-02-25T08:54:40;2.60;;;2.40;;
18125;SDS011;53956;52.442;13.284;2023-02-25T08:57:07;2.30;;;2.10;;
18125;SDS011;53956;52.442;13.284;2023-02-25T08:59:35;2.43;;;2.23;;
18125;SDS011;53956;52.442;13.284;2023-02-25T09:02:03;2.27;;;1.93;;
18125;SDS011;53956;52.442;13.284;2023-02-25T09:04:31;2.30;;;2.20;;
18125;SDS011;53956;52.442;13.284;2023-02-25T09:06:59;2.43;;;2.30;;
18125;SDS011;53956;52.442;13.284;2023-02-25T09:09:26;2.13;;;2.03;;
18125;SDS011;53956;52.442;13.284;2023-02-25T09:11:54;3.17;;;1.70;;
18125;SDS011;53956;52.442;13.284;2023-02-25T09:14:20;2.13;;;2.03;;
18125;SDS011;53956;52.442;13.284;2023-02-25T09:16:49;2.00;;;1.90;;
18125;SDS011;53956;52.442;13.284;2023-02-25T09:19:16;2.43;;;2.23;;
18125;SDS011;53956;52.442;13.284;2023-02-25T09:21:43;2.40;;;2.20;;
18125;SDS011;53956;52.442;13.284;2023-02-25T09:24:12;2.53;;;2.10;;
18125;SDS011;53956;52.442;13.284;2023-02-25T09:26:39;2.10;;;1.97;;
18125;SDS011;53956;52.442;13.284;2023-02-25T09:29:06;2.17;;;2.07;;
18125;SDS011;53956;52.442;13.284;2023-02-25T09:31:33;2.43;;;2.23;;
18125;SDS011;53956;52.442;13.284;2023-02-25T09:34:03;2.20;;;2.00;;
18125;SDS011;53956;52.442;13.284;2023-02-25T09:36:31;1.73;;;1.63;;
18125;SDS011;53956;52.442;13.284;2023-02-25T09:38:58;1.60;;;1.50;;
18125;SDS011;53956;52.442;13.284;2023-02-25T09:41:26;2.30;;;2.10;;
18125;SDS011;53956;52.442;13.284;2023-02-25T09:44:04;2.13;;;1.93;;
18125;SDS011;53956;52.442;13.284;2023-02-25T09:46:36;2.10;;;1.97;;
18125;SDS011;53956;52.442;13.284;2023-02-25T09:49:09;2.20;;;2.00;;
18125;SDS011;53956;52.442;13.284;2023-02-25T09:51:39;2.40;;;2.10;;
18125;SDS011;53956;52.442;13.284;2023-02-25T09:54:14;2.10;;;2.00;;
18125;SDS011;53956;52.442;13.284;2023-02-25T09:56:45;1.80;;;1.70;;
18125;SDS011;53956;52.442;13.284;2023-02-25T09:59:13;2.23;;;2.10;;
18125;SDS011;53956;52.442;13.284;2023-02-25T10:01:44;2.30;;;2.20;;
18125;SDS011;53956;52.442;13.284;2023-02-25T10:04:16;2.00;;;1.90;;
18125;SDS011;53956;52.442;13.284;2023-02-25T10:06:50;1.90;;;1.80;;
18125;SDS011;53956;52.442;13.284;2023-02-25T10:09:20;2.30;;;2.10;;
18125;SDS011;53956;52.442;13.284;2023-02-25T10:11:56;2.60;;;2.40;;
18125;SDS011;53956;52.442;13.284;2023-02-25T10:14:33;2.47;;;2.27;;
18125;SDS011;53956;52.442;13.284;2023-02-25T10:17:15;1.90;;;1.80;;
18125;SDS011;53956;52.442;13.284;2023-02-25T10:19:54;2.23;;;2.10;;
18125;SDS011;53956;52.442;13.284;2023-02-25T10:22:43;2.20;;;2.10;;
18125;SDS011;53956;52.442;13.284;2023-02-25T10:25:17;2.40;;;2.20;;
18125;SDS011;53956;52.442;13.284;2023-02-25T10:27:49;2.33;;;2.13;;
18125;SDS011;53956;52.442;13.284;2023-02-25T10:30:21;2.33;;;2.10;;
18125;SDS011;53956;52.442;13.284;2023-02-25T10:32:51;2.00;;;1.90;;
18125;SDS011;53956;52.442;13.284;2023-02-25T10:35:23;2.43;;;2.20;;
18125;SDS011;53956;52.442;13.284;2023-02-25T10:37:50;2.00;;;1.90;;
18125;SDS011;53956;52.442;13.284;2023-02-25T10:40:19;2.13;;;2.03;;
18125;SDS011;53956;52.442;13.284;2023-02-25T10:42:49;2.03;;;1.90;;
18125;SDS011;53956;52.442;13.284;2023-02-25T10:45:19;2.33;;;2.23;;
18125;SDS011;53956;52.442;13.284;2023-02-25T10:47:50;2.00;;;1.90;;
18125;SDS011;53956;52.442;13.284;2023-02-25T10:50:26;2.10;;;2.00;;
18125;SDS011;53956;52.442;13.284;2023-02-25T10:52:57;2.23;;;1.80;;
18125;SDS011;53956;52.442;13.284;2023-02-25T10:55:27;1.80;;;1.70;;
18125;SDS011;53956;52.442;13.284;2023-02-25T10:58:21;1.90;;;1.80;;
18125;SDS011;53956;52.442;13.284;2023-02-25T11:01:00;1.87;;;1.77;;
18125;SDS011;53956;52.442;13.284;2023-02-25T11:03:31;2.37;;;2.17;;
18125;SDS011;53956;52.442;13.284;2023-02-25T11:06:20;2.07;;;1.97;;
18125;SDS011;53956;52.442;13.284;2023-02-25T11:08:49;2.00;;;1.90;;
18125;SDS011;53956;52.442;13.284;2023-02-25T11:11:18;2.07;;;1.83;;
18125;SDS011;53956;52.442;13.284;2023-02-25T11:13:54;1.80;;;1.70;;
18125;SDS011;53956;52.442;13.284;2023-02-25T11:16:25;2.33;;;2.13;;
18125;SDS011;53956;52.442;13.284;2023-02-25T11:18:54;1.97;;;1.87;;
18125;SDS011;53956;52.442;13.284;2023-02-25T11:21:32;2.33;;;2.13;;
18125;SDS011;53956;52.442;13.284;2023-02-25T11:24:02;2.40;;;2.20;;
18125;SDS011;53956;52.442;13.284;2023-02-25T11:26:34;2.00;;;1.90;;
18125;SDS011;53956;52.442;13.284;2023-02-25T11:29:04;1.70;;;1.60;;
18125;SDS011;53956;52.442;13.284;2023-02-25T11:31:35;1.77;;;1.67;;
18125;SDS011;53956;52.442;13.284;2023-02-25T11:34:06;1.90;;;1.80;;
18125;SDS011;53956;52.442;13.284;2023-02-25T11:36:42;2.43;;;1.80;;
18125;SDS011;53956;52.442;13.284;2023-02-25T11:39:14;1.90;;;1.80;;
18125;SDS011;53956;52.442;13.284;2023-02-25T11:41:43;3.63;;;2.50;;
18125;SDS011;53956;52.442;13.284;2023-02-25T11:44:22;2.63;;;2.10;;
18125;SDS011;53956;52.442;13.284;2023-02-25T11:46:56;1.80;;;1.70;;
18125;SDS011;53956;52.442;13.284;2023-02-25T11:49:32;1.90;;;1.80;;
18125;SDS011;53956;52.442;13.284;2023-02-25T11:52:12;2.10;;;2.00;;
18125;SDS011;53956;52.442;13.284;2023-02-25T11:54:45;1.90;;;1.80;;
18125;SDS011;53956;52.442;13.284;2023-02-25T11:57:25;1.70;;;1.60;;
18125;SDS011;53956;52.442;13.284;2023-02-25T12:00:05;1.93;;;1.73;;
18125;SDS011;53956;52.442;13.284;2023-02-25T12:02:46;3.07;;;1.90;;
18125;SDS011;53956;52.442;13.284;2023-02-25T12:08:18;2.90;;;1.83;;
18125;SDS011;53956;52.442;13.284;2023-02-25T12:23:41;2.37;;;2.03;;
18125;SDS011;53956;52.442;13.284;2023-02-25T12:26:22;2.20;;;2.00;;
18125;SDS011;53956;52.442;13.284;2023-02-25T12:29:04;2.10;;;2.00;;
18125;SDS011;53956;52.442;13.284;2023-02-25T12:31:46;2.30;;;2.13;;
18125;SDS011;53956;52.442;13.284;2023-02-25T12:34:39;3.90;;;2.53;;
18125;SDS011;53956;52.442;13.284;2023-02-25T12:37:33;3.93;;;2.20;;
18125;SDS011;53956;52.442;13.284;2023-02-25T12:43:18;2.57;;;2.37;;
18125;SDS011;53956;52.442;13.284;2023-02-25T12:45:57;2.30;;;2.10;;
18125;SDS011;53956;52.442;13.284;2023-02-25T12:48:55;2.00;;;1.90;;
18125;SDS011;53956;52.442;13.284;2023-02-25T12:51:47;2.00;;;1.90;;
18125;SDS011;53956;52.442;13.284;2023-02-25T12:54:41;2.13;;;2.00;;
18125;SDS011;53956;52.442;13.284;2023-02-25T12:57:31;2.07;;;1.97;;
18125;SDS011;53956;52.442;13.284;2023-02-25T13:00:21;2.30;;;2.07;;
18125;SDS011;53956;52.442;13.284;2023-02-25T13:03:19;2.50;;;2.30;;
18125;SDS011;53956;52.442;13.284;2023-02-25T13:09:04;2.30;;;2.10;;
18125;SDS011;53956;52.442;13.284;2023-02-25T13:11:55;2.60;;;2.40;;
18125;SDS011;53956;52.442;13.284;2023-02-25T13:14:38;2.60;;;2.40;;
18125;SDS011;53956;52.442;13.284;2023-02-25T13:17:21;2.63;;;2.13;;
18125;SDS011;53956;52.442;13.284;2023-02-25T13:22:52;2.47;;;2.30;;
18125;SDS011;53956;52.442;13.284;2023-02-25T13:25:35;2.33;;;2.20;;
18125;SDS011;53956;52.442;13.284;2023-02-25T13:28:19;2.77;;;2.57;;
18125;SDS011;53956;52.442;13.284;2023-02-25T13:30:56;2.93;;;2.10;;
18125;SDS011;53956;52.442;13.284;2023-02-25T13:33:34;2.10;;;2.00;;
18125;SDS011;53956;52.442;13.284;2023-02-25T13:36:15;2.50;;;2.40;;
18125;SDS011;53956;52.442;13.284;2023-02-25T13:39:01;2.73;;;2.23;;
18125;SDS011;53956;52.442;13.284;2023-02-25T13:41:40;2.73;;;2.53;;
18125;SDS011;53956;52.442;13.284;2023-02-25T13:44:21;2.87;;;2.27;;
18125;SDS011;53956;52.442;13.284;2023-02-25T13:47:26;3.77;;;2.30;;
18125;SDS011;53956;52.442;13.284;2023-02-25T13:50:17;2.73;;;2.20;;
18125;SDS011;53956;52.442;13.284;2023-02-25T13:53:01;2.93;;;2.60;;
18125;SDS011;53956;52.442;13.284;2023-02-25T13:55:42;2.30;;;2.00;;
18125;SDS011;53956;52.442;13.284;2023-02-25T13:58:31;2.53;;;2.37;;
18125;SDS011;53956;52.442;13.284;2023-02-25T14:01:14;2.70;;;2.40;;
18125;SDS011;53956;52.442;13.284;2023-02-25T14:04:01;3.73;;;2.47;;
18125;SDS011;53956;52.442;13.284;2023-02-25T14:07:00;2.73;;;2.10;;
18125;SDS011;53956;52.442;13.284;2023-02-25T14:09:40;2.77;;;2.57;;
18125;SDS011;53956;52.442;13.284;2023-02-25T14:12:19;3.00;;;2.80;;
18125;SDS011;53956;52.442;13.284;2023-02-25T14:15:10;2.20;;;2.00;;
18125;SDS011;53956;52.442;13.284;2023-02-25T14:17:52;3.30;;;2.30;;
18125;SDS011;53956;52.442;13.284;2023-02-25T14:20:33;2.60;;;2.30;;
18125;SDS011;53956;52.442;13.284;2023-02-25T14:23:07;2.53;;;2.33;;
18125;SDS011;53956;52.442;13.284;2023-02-25T14:25:41;2.53;;;2.33;;
18125;SDS011;53956;52.442;13.284;2023-02-25T14:28:17;2.93;;;2.40;;
18125;SDS011;53956;52.442;13.284;2023-02-25T14:30:53;9.13;;;3.87;;
18125;SDS011;53956;52.442;13.284;2023-02-25T14:36:35;2.77;;;2.53;;
18125;SDS011;53956;52.442;13.284;2023-02-25T14:39:26;3.00;;;2.40;;
18125;SDS011;53956;52.442;13.284;2023-02-25T14:42:19;2.80;;;2.60;;
18125;SDS011;53956;52.442;13.284;2023-02-25T14:44:58;3.40;;;2.97;;
18125;SDS011;53956;52.442;13.284;2023-02-25T14:47:31;2.73;;;2.53;;
18125;SDS011;53956;52.442;13.284;2023-02-25T14:50:02;4.47;;;3.17;;
18125;SDS011;53956;52.442;13.284;2023-02-25T14:52:43;3.40;;;2.43;;
18125;SDS011;53956;52.442;13.284;2023-02-25T15:04:22;2.43;;;2.23;;
18125;SDS011;53956;52.442;13.284;2023-02-25T15:07:06;2.70;;;2.50;;
18125;SDS011;53956;52.442;13.284;2023-02-25T15:12:50;2.23;;;2.00;;
18125;SDS011;53956;52.442;13.284;2023-02-25T15:15:52;2.70;;;2.10;;
18125;SDS011;53956;52.442;13.284;2023-02-25T15:21:38;2.47;;;2.30;;
18125;SDS011;53956;52.442;13.284;2023-02-25T15:24:09;2.33;;;2.17;;
18125;SDS011;53956;52.442;13.284;2023-02-25T15:26:58;2.47;;;2.27;;
18125;SDS011;53956;52.442;13.284;2023-02-25T15:32:20;1.90;;;1.80;;
18125;SDS011;53956;52.442;13.284;2023-02-25T15:34:53;2.43;;;2.23;;
18125;SDS011;53956;52.442;13.284;2023-02-25T15:37:29;3.50;;;2.30;;
18125;SDS011;53956;52.442;13.284;2023-02-25T15:39:58;2.70;;;2.50;;
18125;SDS011;53956;52.442;13.284;2023-02-25T15:45:31;2.27;;;2.17;;
18125;SDS011;53956;52.442;13.284;2023-02-25T15:48:18;2.53;;;2.30;;
18125;SDS011;53956;52.442;13.284;2023-02-25T15:50:57;2.43;;;2.30;;